createdAt,value
2022-09-05T00:01:27.315Z,15.80
2022-09-05T00:04:08.429Z,15.60
2022-09-05T00:06:59.428Z,15.40
2022-09-05T00:09:52.578Z,15.40
2022-09-05T00:12:20.920Z,15.30
2022-09-05T00:15:17.185Z,15.40
2022-09-05T00:20:00.073Z,15.30
2022-09-05T00:24:25.191Z,15.20
2022-09-05T00:24:32.758Z,15.40
2022-09-05T00:27:08.506Z,15.20
2022-09-05T00:31:06.800Z,15.10
2022-09-05T00:32:49.425Z,15.00
2022-09-05T00:35:35.894Z,15.00
2022-09-05T00:38:14.520Z,15.00
2022-09-05T00:40:46.409Z,15.10
2022-09-05T00:43:19.115Z,15.10
2022-09-05T00:45:52.036Z,15.00
2022-09-05T00:48:29.530Z,15.00
2022-09-05T00:51:18.009Z,14.90
2022-09-05T00:53:56.857Z,14.90
2022-09-05T00:56:51.489Z,14.90
2022-09-05T00:59:59.198Z,14.80
2022-09-05T01:02:51.408Z,14.80
2022-09-05T01:05:32.449Z,14.80
2022-09-05T01:08:17.520Z,14.90
2022-09-05T01:10:51.329Z,14.90
2022-09-05T01:13:36.108Z,14.90
2022-09-05T01:16:12.350Z,15.00
2022-09-05T01:18:51.412Z,15.00
2022-09-05T01:21:48.964Z,15.00
2022-09-05T01:24:33.912Z,15.00
2022-09-05T01:29:13.165Z,15.00
2022-09-05T01:30:41.256Z,15.10
2022-09-05T01:33:19.972Z,15.00
2022-09-05T01:36:11.345Z,15.00
2022-09-05T01:39:09.646Z,15.00
2022-09-05T01:41:46.218Z,14.90
2022-09-05T01:44:22.904Z,14.80
2022-09-05T01:47:06.843Z,14.70
2022-09-05T01:49:52.302Z,14.80
2022-09-05T01:52:57.365Z,14.80
2022-09-05T01:55:39.225Z,14.80
2022-09-05T01:58:32.386Z,14.80
2022-09-05T02:01:25.514Z,14.80
2022-09-05T02:04:18.296Z,14.80
2022-09-05T02:06:54.821Z,14.80
2022-09-05T02:09:41.929Z,14.70
2022-09-05T02:12:22.983Z,14.60
2022-09-05T02:14:58.389Z,14.70
2022-09-05T02:17:49.767Z,14.70
2022-09-05T02:20:25.066Z,14.70
2022-09-05T02:23:04.359Z,14.70
2022-09-05T02:26:03.585Z,14.80
2022-09-05T02:28:43.010Z,14.80
2022-09-05T02:31:20.617Z,14.80
2022-09-05T02:34:01.971Z,14.80
2022-09-05T02:36:36.994Z,14.80
2022-09-05T02:45:03.319Z,14.70
2022-09-05T02:45:14.354Z,14.60
2022-09-05T02:45:27.516Z,14.60
2022-09-05T02:48:14.725Z,14.60
2022-09-05T02:57:28.327Z,14.50
2022-09-05T02:57:35.917Z,14.50
2022-09-05T02:57:39.950Z,14.50
2022-09-05T02:59:48.865Z,14.40
2022-09-05T03:02:25.678Z,14.30
2022-09-05T03:05:04.706Z,14.20
2022-09-05T03:07:49.926Z,14.20
2022-09-05T03:10:53.201Z,14.10
2022-09-05T03:13:56.280Z,14.10
2022-09-05T03:17:03.345Z,14.10
2022-09-05T03:20:07.923Z,14.10
2022-09-05T03:23:21.247Z,14.00
2022-09-05T03:26:20.169Z,14.00
2022-09-05T03:29:14.611Z,14.10
2022-09-05T03:32:00.835Z,14.10
2022-09-05T03:34:57.144Z,14.00
2022-09-05T03:38:02.558Z,14.00
2022-09-05T03:40:47.079Z,13.90
2022-09-05T03:43:57.539Z,13.90
2022-09-05T03:46:39.819Z,13.80
2022-09-05T03:53:25.121Z,13.80
2022-09-05T03:57:16.382Z,13.70
2022-09-05T03:57:18.470Z,13.60
2022-09-05T03:58:57.369Z,13.60
2022-09-05T04:03:20.279Z,13.50
2022-09-05T04:08:25.941Z,13.50
2022-09-05T04:08:28.341Z,13.50
2022-09-05T04:10:24.474Z,13.50
2022-09-05T04:12:58.345Z,13.50
2022-09-05T04:15:34.208Z,13.50
2022-09-05T04:18:04.978Z,13.50
2022-09-05T04:20:42.328Z,13.50
2022-09-05T04:23:19.825Z,13.60
2022-09-05T04:26:11.898Z,13.60
2022-09-05T04:28:59.394Z,13.60
2022-09-05T04:31:38.408Z,13.60
2022-09-05T04:34:44.032Z,13.70
2022-09-05T04:37:48.199Z,13.70
2022-09-05T04:40:43.452Z,13.80
2022-09-05T04:43:20.583Z,13.80
2022-09-05T04:45:54.398Z,13.80
2022-09-05T04:48:29.142Z,13.90
2022-09-05T04:51:26.181Z,13.90
2022-09-05T04:54:22.806Z,13.80
2022-09-05T04:56:59.759Z,13.80
2022-09-05T05:01:37.929Z,13.70
2022-09-05T05:06:13.902Z,13.60
2022-09-05T05:06:17.107Z,13.70
2022-09-05T05:08:41.036Z,13.60
2022-09-05T05:17:53.918Z,13.70
2022-09-05T05:18:01.552Z,13.70
2022-09-05T05:18:14.229Z,13.70
2022-09-05T05:20:39.282Z,13.70
2022-09-05T05:22:47.926Z,13.70
2022-09-05T05:25:18.844Z,13.70
2022-09-05T05:27:54.336Z,13.70
2022-09-05T05:30:27.288Z,13.70
2022-09-05T05:32:56.781Z,13.70
2022-09-05T05:35:28.269Z,13.80
2022-09-05T05:38:05.553Z,13.80
2022-09-05T05:40:50.555Z,13.90
2022-09-05T05:43:26.783Z,14.00
2022-09-05T05:45:58.723Z,14.10
2022-09-05T05:48:33.463Z,14.30
2022-09-05T05:52:02.521Z,14.40
2022-09-05T05:54:33.851Z,14.50
2022-09-05T05:57:37.587Z,14.70
2022-09-05T06:00:27.337Z,14.80
2022-09-05T06:03:26.209Z,14.90
2022-09-05T06:06:09.394Z,15.00
2022-09-05T06:14:51.311Z,15.20
2022-09-05T06:15:01.623Z,15.30
2022-09-05T06:15:35.655Z,15.50
2022-09-05T06:18:45.701Z,15.70
2022-09-05T06:22:09.279Z,15.80
2022-09-05T06:25:16.398Z,16.00
2022-09-05T06:28:04.647Z,16.10
2022-09-05T06:31:29.039Z,16.20
2022-09-05T06:34:00.475Z,16.30
2022-09-05T06:36:43.895Z,16.40
2022-09-05T06:39:16.409Z,16.40
2022-09-05T06:42:05.111Z,16.50
2022-09-05T06:44:53.073Z,16.60
2022-09-05T06:47:34.091Z,16.80
2022-09-05T06:50:24.120Z,17.00
2022-09-05T06:53:45.580Z,17.10
2022-09-05T06:56:29.815Z,17.10
2022-09-05T06:59:37.330Z,17.30
2022-09-05T07:02:17.150Z,17.40
2022-09-05T07:05:37.217Z,17.50
2022-09-05T07:08:31.802Z,17.70
2022-09-05T07:11:15.799Z,17.90
2022-09-05T07:13:59.080Z,18.00
2022-09-05T07:16:46.666Z,18.10
2022-09-05T07:19:27.817Z,18.20
2022-09-05T07:22:48.037Z,18.40
2022-09-05T07:25:08.842Z,18.50
2022-09-05T07:28:20.921Z,18.60
2022-09-05T07:30:30.162Z,18.80
2022-09-05T07:33:00.845Z,18.90
2022-09-05T07:35:38.455Z,19.00
2022-09-05T07:38:15.766Z,19.20
2022-09-05T07:40:51.589Z,19.50
2022-09-05T07:43:24.843Z,19.80
2022-09-05T07:46:11.626Z,20.00
2022-09-05T07:48:44.204Z,20.30
2022-09-05T07:56:55.882Z,20.70
2022-09-05T07:57:03.981Z,21.20
2022-09-05T08:00:03.569Z,22.40
2022-09-05T08:02:32.002Z,22.90
2022-09-05T08:05:05.146Z,23.40
2022-09-05T08:07:48.716Z,23.90
2022-09-05T08:10:31.115Z,24.30
2022-09-05T08:13:23.883Z,24.60
2022-09-05T08:16:10.978Z,25.00
2022-09-05T08:18:46.305Z,25.40
2022-09-05T08:21:27.440Z,25.90
2022-09-05T08:24:05.535Z,26.30
2022-09-05T08:26:47.201Z,26.80
2022-09-05T08:29:29.466Z,27.30
2022-09-05T08:32:05.312Z,27.50
2022-09-05T08:34:44.459Z,27.50
2022-09-05T08:37:21.260Z,27.50
2022-09-05T08:40:09.654Z,27.70
2022-09-05T08:42:49.374Z,27.80
2022-09-05T08:46:44.799Z,28.10
2022-09-05T08:48:48.998Z,28.10
2022-09-05T08:51:27.520Z,27.90
2022-09-05T08:54:13.057Z,28.10
2022-09-05T08:56:52.417Z,28.30
2022-09-05T08:59:32.896Z,28.10
2022-09-05T09:06:14.197Z,28.20
2022-09-05T09:09:14.013Z,28.60
2022-09-05T09:11:51.126Z,28.70
2022-09-05T09:14:33.661Z,28.30
2022-09-05T09:17:20.376Z,28.10
2022-09-05T09:19:53.770Z,27.80
2022-09-05T09:22:41.640Z,27.90
2022-09-05T09:25:16.464Z,28.00
2022-09-05T09:28:49.944Z,28.30
2022-09-05T09:30:58.803Z,28.40
2022-09-05T09:33:37.637Z,28.90
2022-09-05T09:36:14.803Z,28.90
2022-09-05T09:38:52.653Z,28.50
2022-09-05T09:41:42.053Z,28.90
2022-09-05T09:44:46.257Z,29.30
2022-09-05T09:47:16.080Z,29.70
2022-09-05T09:50:02.147Z,29.90
2022-09-05T09:53:04.427Z,30.10
2022-09-05T09:55:54.453Z,29.40
2022-09-05T09:58:55.296Z,29.30
2022-09-05T10:01:36.551Z,29.20
2022-09-05T10:10:37.857Z,28.80
2022-09-05T10:11:09.012Z,28.70
2022-09-05T10:11:51.430Z,28.70
2022-09-05T10:14:51.913Z,28.90
2022-09-05T10:17:56.543Z,28.70
2022-09-05T10:20:43.799Z,28.80
2022-09-05T10:23:38.577Z,28.70
2022-09-05T10:26:49.116Z,28.90
2022-09-05T10:29:40.779Z,28.90
2022-09-05T10:35:04.416Z,28.90
2022-09-05T10:35:22.553Z,28.70
2022-09-05T10:37:58.447Z,28.00
2022-09-05T10:40:28.762Z,27.80
2022-09-05T10:43:02.463Z,27.50
2022-09-05T10:45:45.808Z,27.30
2022-09-05T10:48:26.292Z,27.40
2022-09-05T10:51:01.589Z,27.30
2022-09-05T10:53:40.144Z,27.30
2022-09-05T10:56:14.193Z,27.40
2022-09-05T11:02:04.691Z,27.50
2022-09-05T11:02:30.089Z,27.50
2022-09-05T11:04:52.232Z,27.40
2022-09-05T11:07:31.324Z,27.50
2022-09-05T11:10:06.207Z,27.60
2022-09-05T11:13:04.412Z,27.60
2022-09-05T11:15:45.804Z,28.00
2022-09-05T11:18:56.050Z,28.10
2022-09-05T11:21:42.242Z,28.40
2022-09-05T11:24:27.639Z,28.60
2022-09-05T11:27:24.692Z,28.90
2022-09-05T11:29:51.959Z,29.20
2022-09-05T11:37:35.833Z,29.50
2022-09-05T11:39:54.369Z,29.60
2022-09-05T11:40:04.812Z,30.00
2022-09-05T11:42:27.248Z,30.30
2022-09-05T11:45:16.613Z,30.60
2022-09-05T11:48:10.124Z,30.50
2022-09-05T11:51:16.395Z,30.60
2022-09-05T11:54:24.828Z,30.50
2022-09-05T11:57:32.431Z,30.50
2022-09-05T12:00:32.775Z,30.70
2022-09-05T12:03:58.950Z,31.00
2022-09-05T12:06:59.559Z,31.10
2022-09-05T12:09:38.688Z,31.20
2022-09-05T12:12:34.233Z,31.30
2022-09-05T12:15:24.786Z,31.30
2022-09-05T12:18:04.799Z,31.40
2022-09-05T12:20:56.907Z,31.40
2022-09-05T12:23:58.036Z,31.60
2022-09-05T12:27:39.514Z,31.60
2022-09-05T12:29:29.332Z,31.20
2022-09-05T12:33:58.303Z,31.10
2022-09-05T12:36:11.793Z,31.20
2022-09-05T12:40:54.013Z,31.30
2022-09-05T12:41:35.632Z,31.70
2022-09-05T12:44:38.792Z,32.00
2022-09-05T12:46:28.006Z,32.50
2022-09-05T12:49:07.298Z,32.70
2022-09-05T12:51:45.799Z,32.50
2022-09-05T12:54:34.232Z,32.20
2022-09-05T13:02:55.244Z,32.10
2022-09-05T13:03:05.715Z,32.20
2022-09-05T13:03:28.408Z,32.50
2022-09-05T13:05:58.318Z,32.40
2022-09-05T13:08:33.430Z,32.30
2022-09-05T13:12:55.395Z,32.40
2022-09-05T13:14:59.363Z,32.30
2022-09-05T13:16:45.632Z,32.20
2022-09-05T13:19:29.887Z,32.20
2022-09-05T13:22:01.732Z,32.30
2022-09-05T13:24:34.287Z,32.10
2022-09-05T13:27:14.759Z,32.00
2022-09-05T13:31:01.649Z,31.80
2022-09-05T13:37:58.216Z,31.80
2022-09-05T13:38:12.079Z,32.00
2022-09-05T13:38:48.494Z,32.10
2022-09-05T13:41:28.382Z,31.80
2022-09-05T13:44:00.266Z,31.80
2022-09-05T13:46:58.698Z,31.70
2022-09-05T13:49:32.389Z,31.60
2022-09-05T13:52:16.839Z,31.50
2022-09-05T13:54:51.715Z,31.60
2022-09-05T13:57:36.812Z,31.70
2022-09-05T14:00:52.335Z,31.60
2022-09-05T14:03:40.246Z,31.60
2022-09-05T14:06:48.883Z,31.50
2022-09-05T14:09:49.897Z,31.40
2022-09-05T14:12:32.364Z,31.30
2022-09-05T14:15:09.174Z,31.00
2022-09-05T14:18:20.160Z,30.70
2022-09-05T14:21:12.030Z,30.70
2022-09-05T14:23:53.263Z,30.70
2022-09-05T14:26:29.443Z,30.60
2022-09-05T14:29:15.014Z,30.50
2022-09-05T14:37:39.370Z,30.30
2022-09-05T14:37:44.970Z,30.40
2022-09-05T14:38:19.481Z,30.10
2022-09-05T14:41:42.816Z,29.80
2022-09-05T14:44:41.555Z,29.80
2022-09-05T14:47:36.395Z,29.70
2022-09-05T14:50:20.957Z,29.60
2022-09-05T14:56:50.139Z,29.50
2022-09-05T15:02:50.649Z,29.40
2022-09-05T15:02:51.987Z,29.40
2022-09-05T15:04:44.431Z,29.30
2022-09-05T15:07:19.695Z,29.30
2022-09-05T15:12:14.507Z,29.30
2022-09-05T15:12:51.275Z,29.20
2022-09-05T15:15:25.685Z,29.20
2022-09-05T15:17:58.669Z,29.20
2022-09-05T15:20:33.123Z,29.10
2022-09-05T15:23:16.146Z,29.00
2022-09-05T15:25:48.297Z,29.00
2022-09-05T15:28:21.564Z,29.10
2022-09-05T15:31:00.560Z,29.10
2022-09-05T15:33:32.179Z,29.10
2022-09-05T15:36:02.077Z,29.10
2022-09-05T15:38:37.114Z,29.10
2022-09-05T15:41:23.013Z,29.10
2022-09-05T15:44:03.931Z,29.00
2022-09-05T15:46:46.201Z,28.90
2022-09-05T15:49:28.310Z,28.90
2022-09-05T15:51:58.285Z,28.90
2022-09-05T15:54:37.584Z,28.80
2022-09-05T15:57:15.244Z,28.80
2022-09-05T15:59:49.361Z,28.80
2022-09-05T16:02:20.595Z,28.80
2022-09-05T16:10:04.119Z,28.80
2022-09-05T16:10:40.244Z,28.80
2022-09-05T16:12:00.415Z,28.80
2022-09-05T16:14:17.714Z,28.80
2022-09-05T16:23:16.742Z,28.70
2022-09-05T16:23:26.993Z,28.70
2022-09-05T16:23:33.827Z,28.70
2022-09-05T16:25:26.464Z,28.60
2022-09-05T16:27:58.987Z,28.60
2022-09-05T16:30:30.298Z,28.60
2022-09-05T16:33:03.743Z,28.50
2022-09-05T16:35:34.787Z,28.40
2022-09-05T16:38:14.343Z,28.40
2022-09-05T16:40:53.086Z,28.30
2022-09-05T16:43:24.002Z,28.10
2022-09-05T16:45:58.615Z,28.00
2022-09-05T16:48:40.391Z,27.90
2022-09-05T16:51:28.726Z,27.80
2022-09-05T16:54:11.168Z,27.70
2022-09-05T16:56:43.387Z,27.70
2022-09-05T16:59:17.266Z,27.60
2022-09-05T17:02:06.743Z,27.50
2022-09-05T17:05:03.659Z,27.30
2022-09-05T17:07:53.877Z,27.20
2022-09-05T17:10:27.341Z,27.00
2022-09-05T17:12:56.170Z,26.90
2022-09-05T17:15:28.553Z,26.90
2022-09-05T17:18:19.763Z,26.80
2022-09-05T17:20:51.842Z,26.70
2022-09-05T17:28:29.987Z,26.60
2022-09-05T17:29:27.413Z,26.40
2022-09-05T17:29:32.179Z,26.30
2022-09-05T17:32:06.031Z,26.20
2022-09-05T17:35:16.702Z,26.10
2022-09-05T17:38:12.119Z,26.00
2022-09-05T17:41:21.906Z,25.80
2022-09-05T17:43:52.433Z,25.70
2022-09-05T17:46:23.162Z,25.50
2022-09-05T17:49:18.943Z,25.40
2022-09-05T17:52:22.957Z,25.30
2022-09-05T17:54:53.813Z,25.00
2022-09-05T17:57:41.157Z,24.90
2022-09-05T18:00:49.278Z,24.80
2022-09-05T18:04:15.707Z,24.50
2022-09-05T18:06:59.579Z,24.20
2022-09-05T18:10:12.924Z,24.10
2022-09-05T18:13:13.120Z,24.00
2022-09-05T18:16:10.964Z,23.90
2022-09-05T18:19:28.914Z,23.80
2022-09-05T18:21:48.067Z,23.70
2022-09-05T18:24:24.562Z,23.60
2022-09-05T18:30:00.160Z,23.30
2022-09-05T18:32:48.108Z,23.20
2022-09-05T18:35:37.201Z,23.10
2022-09-05T18:38:50.902Z,22.90
2022-09-05T18:41:23.310Z,22.80
2022-09-05T18:44:13.447Z,22.80
2022-09-05T18:46:53.007Z,22.80
2022-09-05T18:50:21.751Z,22.80
2022-09-05T18:52:23.576Z,22.70
2022-09-05T18:56:11.092Z,22.50
2022-09-05T18:57:50.136Z,22.40
2022-09-05T19:00:29.821Z,22.40
2022-09-05T19:03:18.992Z,22.40
2022-09-05T19:05:50.945Z,22.50
2022-09-05T19:08:36.731Z,22.50
2022-09-05T19:11:27.538Z,22.60
2022-09-05T19:14:12.715Z,22.60
2022-09-05T19:16:48.403Z,22.40
2022-09-05T19:19:24.561Z,22.20
2022-09-05T19:22:58.315Z,21.90
2022-09-05T19:24:46.445Z,21.80
2022-09-05T19:27:34.235Z,21.70
2022-09-05T19:36:53.189Z,21.60
2022-09-05T19:37:02.462Z,21.50
2022-09-05T19:37:12.525Z,21.60
2022-09-05T19:40:06.381Z,21.50
2022-09-05T19:47:29.028Z,21.30
2022-09-05T19:47:35.530Z,21.10
2022-09-05T19:47:39.457Z,21.20
2022-09-05T19:50:11.322Z,21.00
2022-09-05T19:52:41.064Z,21.00
2022-09-05T19:55:21.730Z,21.10
2022-09-05T19:58:09.713Z,21.20
2022-09-05T20:00:41.169Z,21.30
2022-09-05T20:03:09.795Z,21.30
2022-09-05T20:05:41.553Z,21.30
2022-09-05T20:08:14.849Z,21.30
2022-09-05T20:10:42.972Z,21.20
2022-09-05T20:13:21.754Z,21.10
2022-09-05T20:15:50.660Z,21.00
2022-09-05T20:18:22.059Z,20.90
2022-09-05T20:20:55.650Z,20.60
2022-09-05T20:23:26.412Z,20.50
2022-09-05T20:25:56.300Z,20.40
2022-09-05T20:28:27.635Z,20.30
2022-09-05T20:30:59.680Z,20.20
2022-09-05T20:33:31.715Z,20.00
2022-09-05T20:39:26.599Z,20.00
2022-09-05T20:43:18.921Z,19.80
2022-09-05T20:43:20.173Z,19.60
2022-09-05T20:44:41.333Z,19.50
2022-09-05T20:54:07.425Z,19.40
2022-09-05T20:54:16.795Z,19.30
2022-09-05T20:54:17.617Z,19.30
2022-09-05T20:55:47.030Z,19.30
2022-09-05T20:58:17.801Z,19.30
2022-09-05T21:01:15.685Z,19.20
2022-09-05T21:03:40.871Z,19.10
2022-09-05T21:06:19.964Z,19.10
2022-09-05T21:08:48.014Z,19.10
2022-09-05T21:11:17.660Z,19.10
2022-09-05T21:13:52.582Z,19.10
2022-09-05T21:16:28.185Z,19.10
2022-09-05T21:18:56.821Z,19.10
2022-09-05T21:21:29.263Z,19.10
2022-09-05T21:24:23.560Z,19.10
2022-09-05T21:26:52.943Z,18.90
2022-09-05T21:29:32.329Z,18.90
2022-09-05T21:32:10.283Z,18.80
2022-09-05T21:34:45.080Z,18.80
2022-09-05T21:37:15.107Z,18.80
2022-09-05T21:39:59.411Z,18.80
2022-09-05T21:44:10.514Z,18.80
2022-09-05T21:47:42.446Z,18.80
2022-09-05T21:48:08.529Z,18.80
2022-09-05T21:50:42.373Z,18.70
2022-09-05T21:56:35.952Z,18.50
2022-09-05T21:59:19.659Z,18.30
2022-09-05T21:59:37.051Z,18.30
2022-09-05T22:01:53.161Z,18.20
2022-09-05T22:04:22.416Z,18.30
2022-09-05T22:06:52.976Z,18.30
2022-09-05T22:09:22.566Z,18.30
2022-09-05T22:11:51.160Z,18.30
2022-09-05T22:14:22.488Z,18.30
2022-09-05T22:16:52.887Z,18.20
2022-09-05T22:19:37.018Z,18.20
2022-09-05T22:22:16.464Z,18.10
2022-09-05T22:24:49.703Z,18.00
2022-09-05T22:27:20.048Z,17.90
2022-09-05T22:29:50.671Z,17.90
2022-09-05T22:32:34.131Z,17.90
2022-09-05T22:35:27.710Z,17.90
2022-09-05T22:37:55.290Z,17.90
2022-09-05T22:40:28.546Z,17.90
2022-09-05T22:42:57.750Z,18.00
2022-09-05T22:45:27.593Z,17.90
2022-09-05T22:47:55.883Z,17.90
2022-09-05T22:50:24.842Z,17.90
2022-09-05T22:52:53.024Z,17.80
2022-09-05T22:55:21.372Z,17.80
2022-09-05T22:57:49.410Z,17.80
2022-09-05T23:00:17.479Z,17.90
2022-09-05T23:02:51.610Z,17.90
2022-09-05T23:05:20.508Z,17.90
2022-09-05T23:07:48.468Z,17.90
2022-09-05T23:10:16.832Z,18.00
2022-09-05T23:12:45.028Z,18.10
2022-09-05T23:15:12.936Z,18.10
2022-09-05T23:17:40.903Z,18.10
2022-09-05T23:20:11.527Z,18.10
2022-09-05T23:22:39.980Z,18.10
2022-09-05T23:25:08.510Z,18.10
2022-09-05T23:27:37.687Z,18.10
2022-09-05T23:30:07.320Z,18.10
2022-09-05T23:32:35.446Z,18.20
2022-09-05T23:35:03.905Z,18.20
2022-09-05T23:37:33.226Z,18.30
2022-09-05T23:40:01.224Z,18.40
2022-09-05T23:42:29.212Z,18.40
2022-09-05T23:44:57.172Z,18.50
2022-09-05T23:47:25.147Z,18.50
2022-09-05T23:49:53.125Z,18.60
2022-09-05T23:52:21.084Z,18.60
2022-09-05T23:54:50.437Z,18.60
2022-09-05T23:57:23.187Z,18.60
2022-09-05T23:59:52.483Z,18.60
